Latest Weather Observations for Williamtown

IDN60901

Issued at 6:01 am EST Thursday 19 September 2019 (issued every 10 minutes, with the page automatically refreshed every 10 minutes)

About weather observations | Map of Sydney area stations | Latest observations for Sydney area | Other Formats
Station Details ID: 061078 Name: WILLIAMTOWN RAAF Lat: -32.79 Lon: 151.84 Height: 7.5 m
Data from the previous 72 hours. | See also: Recent months at Williamtown
Date/Time
EST
Temp
°C
App
Temp
°C
Dew
Point
°C
Rel
Hum
%
Delta-T
°C
Wind Press
QNH
hPa
Press
MSL
hPa
Rain since
9am
mm
Dir  Spd
km/h
Gust
km/h
Spd
kts
Gust
kts
19/05:32am 14.3 14.5 14.3 100 0.0 N 6 7 3 4 1025.7 1025.7 7.2
19/05:30am 14.3 14.5 14.3 100 0.0 N 6 7 3 4 1025.6 1025.6 7.2
19/05:00am 14.1 14.6 14.1 100 0.0 S 4 7 2 4 1025.1 1025.1 7.2
19/04:37am 14.0 13.6 14.0 100 0.0 SE 9 9 5 5 1024.9 1024.9 7.0
19/04:30am 14.0 13.6 14.0 100 0.0 SE 9 9 5 5 1024.9 1024.9 7.0
19/04:27am 14.0 13.9 14.0 100 0.0 SE 7 9 4 5 1024.8 1024.8 7.0
19/04:25am 14.0 13.9 14.0 100 0.0 SSE 7 9 4 5 1024.8 1024.8 7.0
19/04:15am 14.2 15.1 14.0 99 0.1 NE 2 9 1 5 1024.6 1024.6 7.0
19/04:09am 14.0 14.8 13.8 99 0.1 N 2 7 1 4 1024.6 1024.6 7.0
19/04:00am 13.8 13.6 13.6 99 0.1 NNW 7 9 4 5 1024.5 1024.5 7.0
19/03:34am 13.2 14.1 12.9 98 0.2 CALM 0 0 0 0 1024.2 1024.2 6.0
19/03:30am 13.4 14.4 13.1 98 0.2 CALM 0 0 0 0 1024.2 1024.2 6.0
19/03:00am 14.0 14.4 13.7 98 0.2 WNW 4 6 2 3 1024.0 1024.0 6.0
19/02:30am 14.4 15.7 14.1 98 0.2 CALM 0 0 0 0 1024.1 1024.1 6.0
19/02:00am 14.6 15.5 14.1 97 0.3 NNE 2 7 1 4 1024.2 1024.2 6.0
19/01:54am 15.0 16.4 14.5 97 0.3 CALM 0 0 0 0 1024.2 1024.2 6.0
19/01:49am 15.0 16.4 14.5 97 0.3 CALM 0 0 0 0 1024.2 1024.2 6.0
19/01:30am 15.1 16.6 14.6 97 0.3 CALM 0 0 0 0 1024.3 1024.3 6.0
19/01:13am 15.1 16.6 14.6 97 0.3 CALM 0 0 0 0 1024.5 1024.5 6.0
19/01:00am 15.1 16.6 14.6 97 0.3 CALM 0 0 0 0 1024.5 1024.5 6.0
19/12:30am 15.4 15.9 14.9 97 0.3 N 6 7 3 4 1024.7 1024.7 6.0
19/12:00am 15.4 15.9 14.9 97 0.3 NNW 6 7 3 4 1024.8 1024.8 6.0
 
Date/Time
EST
Temp
°C
App
Temp
°C
Dew
Point
°C
Rel
Hum
%
Delta-T
°C
Wind Press
QNH
hPa
Press
MSL
hPa
Rain since
9am
mm
Dir  Spd
km/h
Gust
km/h
Spd
kts
Gust
kts
18/11:30pm 15.6 15.9 15.1 97 0.3 NW 7 11 4 6 1024.8 1024.8 6.0
18/11:00pm 15.8 16.4 15.2 96 0.3 NW 6 9 3 5 1024.9 1024.9 5.8
18/10:54pm 15.8 16.2 15.2 96 0.3 NW 7 9 4 5 1024.8 1024.8 5.8
18/10:32pm 15.9 15.9 15.3 96 0.3 NE 9 11 5 6 1024.9 1024.9 5.2
18/10:30pm 15.9 15.9 15.3 96 0.3 NE 9 11 5 6 1024.9 1024.9 5.0
18/10:00pm 15.5 17.1 14.9 96 0.3 CALM 0 0 0 0 1024.8 1024.8 4.6
18/09:30pm 15.5 16.7 14.9 96 0.3 NNW 2 6 1 3 1024.8 1024.8 4.6
18/09:00pm 15.6 16.1 15.0 96 0.3 NNW 6 7 3 4 1024.7 1024.7 4.6
18/08:30pm 15.3 16.8 14.7 96 0.3 CALM 0 0 0 0 1024.5 1024.5 4.6
18/08:00pm 15.5 16.9 14.5 94 0.6 CALM 0 0 0 0 1024.4 1024.4 4.6
18/07:30pm 15.7 17.0 14.2 91 0.9 CALM 0 0 0 0 1024.3 1024.3 4.6
18/07:00pm 17.0 18.7 15.2 89 1.0 CALM 0 7 0 4 1024.0 1024.0 4.6
18/06:30pm 16.5 16.6 14.5 88 1.1 SE 7 9 4 5 1023.7 1023.7 4.6
18/06:00pm 17.4 16.6 15.2 87 1.3 SE 13 15 7 8 1023.6 1023.6 4.6
18/05:30pm 17.9 16.8 15.2 84 1.6 SE 15 20 8 11 1023.3 1023.3 4.6
18/05:00pm 18.5 16.3 14.8 79 2.1 SE 20 26 11 14 1023.1 1023.1 4.6
18/04:30pm 19.1 16.5 15.0 77 2.4 SE 22 30 12 16 1022.8 1022.8 4.6
18/04:00pm 19.2 15.8 14.7 75 2.6 SE 26 32 14 17 1022.4 1022.4 4.6
18/03:30pm 19.7 15.8 15.6 77 2.4 SE 30 37 16 20 1022.0 1022.0 4.6
18/03:00pm 19.6 16.0 15.3 76 2.5 ESE 28 35 15 19 1021.9 1021.9 4.6
18/02:30pm 20.0 16.5 15.4 75 2.7 SE 28 37 15 20 1021.8 1021.8 4.6
18/02:00pm 19.6 15.5 15.9 79 2.2 SE 32 41 17 22 1021.8 1021.8 4.6
18/01:30pm 19.8 16.9 17.0 84 1.7 SE 28 35 15 19 1021.9 1021.9 4.6
18/01:00pm 18.4 17.3 16.4 88 1.2 SE 17 24 9 13 1022.0 1022.0 4.6
18/12:30pm 17.6 17.0 16.6 94 0.6 SE 15 19 8 10 1022.2 1022.2 4.6
18/12:21pm 17.0 16.6 16.2 95 0.5 SE 13 19 7 10 1022.2 1022.2 4.6
18/12:00pm 16.1 14.7 15.5 96 0.3 ESE 17 22 9 12 1022.4 1022.4 3.8
18/11:46am 16.3 14.5 15.5 95 0.5 ESE 19 26 10 14 1022.7 1022.7 2.6
18/11:30am 16.7 14.9 15.4 92 0.8 ESE 19 26 10 14 1022.6 1022.6 1.8
18/11:20am 17.0 15.3 15.7 92 0.8 ESE 19 28 10 15 1022.6 1022.6 1.4
18/11:00am 17.8 15.9 15.8 88 1.2 SE 20 32 11 17 1022.6 1022.6 1.2
18/10:30am 17.4 15.4 16.4 94 0.6 SE 22 30 12 16 1022.7 1022.7 1.2
18/10:00am 17.9 16.6 15.7 87 1.3 ESE 17 26 9 14 1022.6 1022.6 1.0
18/09:37am 17.5 16.4 16.4 93 0.7 SE 17 28 9 15 1022.5 1022.5 1.0
18/09:30am 17.4 15.8 16.1 92 0.8 SE 19 28 10 15 1022.5 1022.5 1.0
18/09:27am 17.4 15.8 16.1 92 0.8 SE 19 22 10 12 1022.5 1022.5 0.8
18/09:20am 17.6 16.2 16.6 94 0.6 SE 19 26 10 14 1022.4 1022.4 0.2
18/09:06am 17.6 17.1 17.0 96 0.4 SE 15 19 8 10 1022.2 1022.2 0.0
18/09:00am 17.3 16.7 16.7 96 0.4 SE 15 20 8 11 1022.1 1022.1 39.4
18/08:48am 16.9 16.2 16.3 96 0.4 SE 15 19 8 10 1021.8 1021.8 39.4
18/08:30am 16.7 15.4 15.7 94 0.6 ESE 17 26 9 14 1021.8 1021.8 38.0
18/08:12am 16.6 13.2 15.8 95 0.5 SE 28 35 15 19 1021.6 1021.6 37.8
18/08:00am 16.4 12.9 15.4 94 0.6 ESE 28 39 15 21 1021.7 1021.7 37.4
18/07:30am 16.9 12.6 15.4 91 0.9 ESE 32 43 17 23 1021.4 1021.4 36.6
18/07:18am 17.1 12.8 15.4 90 1.0 ESE 32 50 17 27 1021.3 1021.3 36.6
18/07:09am 17.2 12.9 15.5 90 1.0 ESE 32 39 17 21 1021.2 1021.2 36.6
18/07:00am 17.4 13.0 15.6 89 1.1 ESE 33 43 18 23 1021.0 1021.0 36.6
18/06:30am 17.1 13.1 15.3 89 1.0 SE 30 37 16 20 1020.6 1020.5 36.6
18/06:23am 16.8 12.6 15.7 93 0.6 SE 32 41 17 22 1020.4 1020.3 36.6
18/06:12am 16.7 12.2 15.4 92 0.8 SE 33 48 18 26 1020.3 1020.2 36.6
18/06:00am 17.0 11.5 14.8 87 1.3 SE 37 46 20 25 1020.1 1020.0 36.0
18/05:30am 17.0 11.4 15.5 91 0.9 SE 39 54 21 29 1019.8 1019.7 36.0
18/05:10am 16.9 11.6 15.4 91 0.9 SE 37 50 20 27 1019.5 1019.4 36.0
18/05:03am 16.9 11.2 15.2 90 1.0 SE 39 50 21 27 1019.4 1019.3 36.0
18/05:00am 16.8 11.1 15.2 90 0.9 SE 39 50 21 27 1019.4 1019.3 36.0
18/04:58am 16.8 11.1 15.2 90 0.9 SSE 39 50 21 27 1019.3 1019.2 36.0
18/04:44am 16.6 10.9 15.3 92 0.8 SSE 39 54 21 29 1019.3 1019.2 35.8
18/04:40am 16.3 11.3 15.0 92 0.8 SSE 35 54 19 29 1019.3 1019.2 35.8
18/04:37am 16.6 12.2 15.1 91 0.9 SSE 32 52 17 28 1019.3 1019.2 35.6
18/04:30am 16.7 13.4 15.1 90 0.9 SSE 26 35 14 19 1019.3 1019.2 35.6
18/04:00am 16.5 11.6 14.3 87 1.3 SSE 33 48 18 26 1019.4 1019.3 35.4
18/03:30am 16.4 11.9 14.9 91 0.9 SSE 32 39 17 21 1019.5 1019.4 35.0
18/03:00am 16.3 11.7 15.0 92 0.7 SE 33 44 18 24 1019.1 1019.0 34.4
18/02:30am 16.5 10.7 15.0 91 0.9 SE 39 54 21 29 1018.8 1018.7 33.6
18/02:21am 16.4 10.3 15.1 92 0.8 SE 41 54 22 29 1018.7 1018.6 33.4
18/02:12am 16.4 9.8 14.9 91 0.9 SE 43 56 23 30 1018.5 1018.4 33.4
18/02:02am 16.4 9.8 15.4 94 0.6 SE 44 56 24 30 1018.6 1018.5 33.2
18/02:01am 16.4 9.8 15.4 94 0.6 SE 44 59 24 32 1018.6 1018.5 33.2
18/02:00am 16.4 9.8 15.4 94 0.6 SE 44 59 24 32 1018.6 1018.5 33.2
18/01:43am 15.5 10.9 15.0 97 0.3 SSE 33 56 18 30 1018.8 1018.7 32.4
18/01:41am 15.3 10.2 14.8 97 0.3 SSE 35 56 19 30 1018.8 1018.7 32.4
18/01:40am 15.3 9.8 14.8 97 0.3 SSE 37 56 20 30 1018.8 1018.7 32.4
18/01:30am 15.5 8.9 14.9 96 0.3 SSE 43 54 23 29 1018.6 1018.5 31.4
18/01:29am 15.4 8.8 14.8 96 0.3 SSE 43 56 23 30 1018.5 1018.4 31.4
18/01:25am 15.1 8.0 14.1 94 0.6 SSE 44 56 24 30 1018.4 1018.3 30.8
18/01:05am 15.4 10.3 14.8 96 0.3 SE 35 57 19 31 1019.0 1018.9 28.2
18/01:04am 15.2 10.4 14.6 96 0.3 SE 33 52 18 28 1018.9 1018.8 28.0
18/01:00am 15.2 9.7 14.6 96 0.3 SE 37 50 20 27 1019.1 1019.0 27.4
18/12:46am 15.4 9.2 14.8 96 0.3 SE 41 61 22 33 1018.8 1018.7 25.4
18/12:30am 15.6 8.5 15.0 96 0.3 SE 46 59 25 32 1018.6 1018.5 24.6
18/12:00am 15.3 7.3 14.7 96 0.3 SSE 50 74 27 40 1018.6 1018.5 21.6
 
Date/Time
EST
Temp
°C
App
Temp
°C
Dew
Point
°C
Rel
Hum
%
Delta-T
°C
Wind Press
QNH
hPa
Press
MSL
hPa
Rain since
9am
mm
Dir  Spd
km/h
Gust
km/h
Spd
kts
Gust
kts
17/11:44pm 15.4 8.1 14.6 95 0.5 SSE 46 65 25 35 1018.9 1018.8 19.4
17/11:42pm 15.3 8.0 14.5 95 0.5 SSE 46 65 25 35 1019.0 1018.9 19.0
17/11:38pm 15.3 7.9 14.3 94 0.6 SSE 46 61 25 33 1019.0 1018.9 18.8
17/11:31pm 15.2 6.3 14.2 94 0.6 SSE 54 72 29 39 1018.8 1018.7 18.4
17/11:30pm 15.1 6.1 14.0 93 0.6 SSE 54 72 29 39 1018.7 1018.6 18.2
17/11:00pm 15.1 6.1 14.0 93 0.6 SSE 54 74 29 40 1018.0 1017.9 17.0
17/10:59pm 15.1 6.5 14.0 93 0.6 SSE 52 74 28 40 1018.0 1017.9 17.0
17/10:30pm 15.6 6.6 14.1 91 0.8 SSE 54 72 29 39 1018.4 1018.3 15.2
17/10:27pm 15.6 7.0 14.1 91 0.8 SSE 52 72 28 39 1018.3 1018.2 15.2
17/10:26pm 15.7 7.5 14.2 91 0.9 SSE 50 67 27 36 1018.3 1018.2 15.2
17/10:11pm 15.8 9.3 14.0 89 1.0 SSE 41 59 22 32 1018.8 1018.7 15.2
17/10:00pm 15.9 9.0 14.1 89 1.0 S 43 57 23 31 1018.9 1018.8 15.2
17/09:53pm 15.7 9.1 13.7 88 1.1 S 41 56 22 30 1018.7 1018.6 15.2
17/09:30pm 15.7 6.7 12.8 83 1.6 S 52 76 28 41 1018.8 1018.7 15.2
17/09:00pm 15.4 6.6 12.2 81 1.7 S 50 70 27 38 1019.2 1019.1 15.2
17/08:30pm 14.5 7.1 12.5 88 1.1 SSE 43 63 23 34 1019.2 1019.1 15.2
17/08:16pm 14.3 5.1 12.3 88 1.1 SSE 52 70 28 38 1019.1 1019.0 15.0
17/08:00pm 14.0 5.9 12.2 89 1.0 S 46 74 25 40 1018.8 1018.7 14.8
17/07:44pm 14.2 6.7 12.6 90 0.9 SSE 44 65 24 35 1019.0 1018.9 13.4
17/07:37pm 14.5 7.0 12.7 89 1.0 SSE 44 65 24 35 1019.1 1019.0 12.6
17/07:30pm 14.5 7.6 12.9 90 0.9 SSE 41 65 22 35 1019.1 1019.0 12.2
17/07:18pm 14.5 7.3 13.0 91 0.8 SSE 43 57 23 31 1019.1 1019.0 11.4
17/07:00pm 14.5 7.1 12.5 88 1.1 SSE 43 61 23 33 1019.1 1019.0 10.6
17/06:30pm 15.1 8.4 13.3 89 1.0 SSE 41 59 22 32 1018.7 1018.6 9.8
17/06:00pm 14.8 8.0 13.2 90 0.9 S 41 59 22 32 1018.7 1018.6 9.4
17/05:41pm 15.0 7.6 13.0 88 1.1 S 44 63 24 34 1018.4 1018.3 8.8
17/05:30pm 15.2 7.3 12.7 85 1.4 S 46 69 25 37 1018.0 1017.9 8.4
17/05:08pm 15.6 8.2 13.1 85 1.4 SSE 44 63 24 34 1017.5 1017.4 8.4
17/05:00pm 15.6 7.9 13.4 87 1.2 SSE 46 59 25 32 1017.5 1017.4 8.4
17/04:30pm 15.6 9.4 13.8 89 1.0 SSE 39 57 21 31 1017.3 1017.2 8.4
17/04:05pm 15.2 13.6 14.9 98 0.2 NNE 17 43 9 23 1017.4 1017.3 8.4
17/04:00pm 13.7 13.1 13.4 98 0.2 NNE 9 22 5 12 1017.6 1017.5 8.4
17/03:30pm 12.8 9.4 12.6 99 0.1 WNW 22 32 12 17 1017.4 1017.3 8.2
17/03:00pm 13.1 9.8 12.9 99 0.1 WNW 22 28 12 15 1017.2 1017.1 7.8
17/02:54pm 12.9 9.6 12.7 99 0.1 WNW 22 28 12 15 1017.3 1017.2 7.8
17/02:35pm 12.6 9.6 12.4 99 0.1 WNW 20 26 11 14 1017.5 1017.4 7.8
17/02:30pm 12.3 9.2 12.1 99 0.1 WNW 20 26 11 14 1017.6 1017.5 7.6
17/02:09pm 11.9 8.5 11.4 97 0.3 WNW 20 26 11 14 1017.6 1017.5 6.2
17/02:00pm 12.0 8.3 11.4 96 0.3 NW 22 30 12 16 1017.9 1017.8 2.6
17/01:51pm 12.5 8.9 11.7 95 0.4 WNW 22 28 12 15 1018.0 1017.9 1.2
17/01:30pm 12.7 9.5 11.8 94 0.5 W 20 30 11 16 1017.9 1017.8 1.2
17/01:00pm 13.2 10.7 12.4 95 0.4 WSW 17 24 9 13 1017.6 1017.5 1.2
17/12:30pm 12.4 9.3 11.5 94 0.5 WSW 19 24 10 13 1018.0 1017.9 1.2
17/12:00pm 12.2 9.1 11.6 96 0.3 SW 19 26 10 14 1018.3 1018.2 1.2
17/11:30am 11.6 8.2 11.1 97 0.3 SW 20 30 11 16 1019.1 1019.0 0.8
17/11:00am 11.8 7.7 11.5 98 0.2 SW 24 35 13 19 1019.3 1019.2 0.6
17/10:30am 11.7 7.5 11.2 97 0.3 SW 24 30 13 16 1019.5 1019.4 0.2
17/10:24am 11.9 7.8 11.4 97 0.3 SSW 24 32 13 17 1019.4 1019.3 0.2
17/10:10am 11.6 7.0 11.1 97 0.3 SSW 26 33 14 18 1019.6 1019.5 0.0
17/10:00am 11.6 7.4 11.0 96 0.3 SSW 24 32 13 17 1019.4 1019.3 0.0
17/09:41am 11.8 7.6 11.2 96 0.3 SSW 24 32 13 17 1019.7 1019.6 0.0
17/09:30am 12.1 7.6 11.5 96 0.3 SSW 26 39 14 21 1019.7 1019.6 0.0
17/09:22am 12.1 7.3 11.5 96 0.3 SSW 28 37 15 20 1019.8 1019.7 0.0
17/09:00am 12.6 7.9 12.0 96 0.3 SSW 28 35 15 19 1019.4 1019.3 16.8
17/08:30am 13.0 8.5 12.5 97 0.3 SSW 28 37 15 20 1020.2 1020.1 16.4
17/08:00am 12.9 8.4 12.6 98 0.2 SSW 28 39 15 21 1020.2 1020.1 16.2
17/07:30am 13.4 9.5 13.2 99 0.1 SSW 26 37 14 20 1020.0 1019.9 14.4
17/07:00am 13.3 9.7 13.0 98 0.2 SSW 24 32 13 17 1019.9 1019.8 12.4
17/06:51am 13.3 9.3 13.0 98 0.2 SSW 26 39 14 21 1019.6 1019.5 11.8
17/06:40am 13.3 9.3 13.0 98 0.2 SSW 26 33 14 18 1019.4 1019.3 11.4
17/06:30am 13.2 8.4 12.9 98 0.2 S 30 41 16 22 1019.1 1019.0 11.4
17/06:00am 13.1 9.4 12.8 98 0.2 SSW 24 35 13 19 1019.4 1019.3 10.4
17/05:57am 13.2 9.2 12.9 98 0.2 SSW 26 35 14 19 1019.3 1019.2 10.0
17/05:43am 13.2 8.4 12.9 98 0.2 SSW 30 43 16 23 1019.3 1019.2 9.2
17/05:30am 13.2 9.2 12.9 98 0.2 SSW 26 33 14 18 1018.8 1018.7 9.0
17/05:00am 13.2 8.4 12.9 98 0.2 SSW 30 39 16 21 1019.3 1019.2 7.0
17/04:39am 13.5 9.6 13.2 98 0.2 SSW 26 37 14 20 1018.8 1018.7 5.6
17/04:30am 13.7 9.8 13.4 98 0.2 S 26 35 14 19 1018.3 1018.2 5.2
17/04:22am 13.8 10.0 13.5 98 0.2 SSW 26 35 14 19 1018.5 1018.4 5.2
17/04:00am 13.9 9.7 13.4 97 0.3 SSW 28 39 15 21 1018.4 1018.3 4.2
17/03:57am 14.0 10.5 13.5 97 0.3 SSW 24 33 13 18 1018.7 1018.6 4.0
17/03:51am 14.1 10.7 13.6 97 0.3 SSW 24 30 13 16 1019.4 1019.3 3.4
17/03:30am 14.4 11.4 13.8 96 0.3 SSW 22 33 12 18 1018.7 1018.6 2.4
17/03:18am 14.6 11.6 13.8 95 0.4 SSW 22 32 12 17 1018.7 1018.6 1.8
17/03:03am 14.6 13.0 13.8 95 0.4 SSW 15 28 8 15 1018.5 1018.4 1.6
17/03:00am 14.6 12.5 13.6 94 0.6 SSW 17 28 9 15 1018.6 1018.5 1.6
17/02:52am 14.8 11.3 13.5 92 0.7 SSW 24 33 13 18 1018.8 1018.7 0.4
17/02:30am 16.0 12.6 12.6 80 1.9 S 22 28 12 15 1018.6 1018.5 0.0
17/02:00am 16.7 13.0 11.6 72 2.8 SSE 22 30 12 16 1018.5 1018.4 0.0
17/01:30am 16.6 11.8 11.5 72 2.8 SSE 28 33 15 18 1019.1 1019.0 0.0
17/01:00am 16.7 12.0 12.0 74 2.6 SSE 28 37 15 20 1019.1 1019.0 0.0
17/12:30am 16.7 12.6 12.7 77 2.2 SSE 26 33 14 18 1019.0 1018.9 0.0
17/12:00am 16.8 12.8 12.9 78 2.2 S 26 35 14 19 1019.4 1019.3 0.0
 
Date/Time
EST
Temp
°C
App
Temp
°C
Dew
Point
°C
Rel
Hum
%
Delta-T
°C
Wind Press
QNH
hPa
Press
MSL
hPa
Rain since
9am
mm
Dir  Spd
km/h
Gust
km/h
Spd
kts
Gust
kts
16/11:30pm 17.1 13.3 12.4 74 2.6 SSE 24 35 13 19 1019.5 1019.4 0.0
16/11:00pm 17.1 13.4 12.6 75 2.5 S 24 30 13 16 1019.5 1019.4 0.0
16/10:30pm 17.0 13.5 13.3 79 2.1 S 24 30 13 16 1019.8 1019.7 0.0
16/10:00pm 17.4 12.3 13.1 76 2.4 SSE 32 41 17 22 1019.0 1018.9 0.0
16/09:30pm 17.3 13.0 13.2 77 2.3 S 28 37 15 20 1019.0 1018.9 0.0
16/09:00pm 16.9 13.1 13.6 81 1.9 S 26 35 14 19 1018.8 1018.7 0.0
16/08:30pm 17.4 13.7 13.9 80 2.0 S 26 33 14 18 1019.0 1018.9 0.0
16/08:00pm 17.5 12.5 14.0 80 2.0 S 33 48 18 26 1018.7 1018.6 0.0
16/07:46pm 17.7 12.7 14.0 79 2.1 S 33 46 18 25 1018.8 1018.7 0.0
16/07:30pm 17.8 12.9 14.3 80 2.0 S 33 48 18 26 1018.6 1018.5 0.0
16/07:23pm 17.8 13.5 14.5 81 1.9 S 30 48 16 26 1018.4 1018.3 0.0
16/07:00pm 17.7 13.2 14.8 83 1.7 S 32 41 17 22 1017.6 1017.5 0.0
16/06:30pm 17.8 12.7 14.7 82 1.8 S 35 59 19 32 1016.9 1016.8 0.0
16/06:01pm 18.1 12.4 15.2 83 1.7 SSW 39 59 21 32 1016.3 1016.2 0.0
16/06:00pm 18.1 12.4 15.2 83 1.7 SSW 39 56 21 30 1016.4 1016.3 0.0
16/05:54pm 18.3 12.2 15.2 82 1.8 SSW 41 59 22 32 1015.9 1015.8 0.0
16/05:34pm 19.2 14.1 13.8 71 3.1 SSW 33 65 18 35 1014.3 1014.2 0.0
16/05:30pm 21.2 17.6 10.7 51 5.7 SW 20 52 11 28 1014.7 1014.6 0.0
16/05:28pm 23.1 19.5 8.4 39 7.8 WSW 17 52 9 28 1014.7 1014.6 0.0
16/05:00pm 25.8 22.6 0.5 19 11.8 NNE 7 11 4 6 1013.1 1013.0 0.0
16/04:30pm 25.9 22.5 1.9 21 11.5 N 9 13 5 7 1012.7 1012.6 0.0
16/04:00pm 27.3 22.6 -1.6 15 13.1 NNE 13 17 7 9 1012.5 1012.4 0.0
16/03:30pm 28.6 24.9 -4.7 11 14.5 WNW 6 9 3 5 1012.6 1012.5 0.0
16/03:00pm 28.8 24.4 -5.8 10 14.8 SW 9 15 5 8 1012.8 1012.7 0.0
16/02:30pm 28.4 23.2 -6.1 10 14.6 NW 13 17 7 9 1012.8 1012.7 0.0
16/02:00pm 28.4 21.9 0.2 16 13.4 NW 24 54 13 29 1013.0 1012.9 0.0
16/01:56pm 28.3 22.5 0.1 16 13.3 WNW 20 54 11 29 1013.0 1012.9 0.0
16/01:30pm 28.8 22.2 -7.2 9 15.0 W 20 30 11 16 1013.4 1013.3 0.0
16/01:00pm 29.6 21.5 -6.6 9 15.3 WNW 28 37 15 20 1013.5 1013.4 0.0
16/12:30pm 30.9 22.9 -5.6 9 15.9 WNW 28 39 15 21 1013.8 1013.7 0.0
16/12:00pm 28.8 19.9 -7.2 9 15.0 WNW 32 41 17 22 1014.1 1014.0 0.0
16/11:31am 29.6 20.6 -8.1 8 15.6 WNW 32 52 17 28 1014.6 1014.5 0.0
16/11:30am 29.3 20.3 -8.3 8 15.4 WNW 32 46 17 25 1014.7 1014.6 0.0
16/11:09am 28.9 23.5 1.4 17 13.3 NW 19 39 10 21 1015.1 1015.0 0.0
16/11:00am 26.5 22.5 3.1 22 11.5 NW 13 19 7 10 1015.3 1015.2 0.0
16/10:30am 24.4 20.3 2.5 24 10.5 NNW 13 20 7 11 1015.9 1015.8 0.0
16/10:00am 22.6 19.0 2.7 27 9.4 WNW 11 17 6 9 1016.3 1016.2 0.0
16/09:30am 21.1 17.3 1.9 28 8.9 NW 11 17 6 9 1016.7 1016.6 0.0
16/09:00am 20.2 16.7 3.4 33 7.9 NW 11 15 6 8 1017.0 1016.9 0.0
16/08:30am 18.3 13.7 1.8 33 7.4 NW 15 20 8 11 1017.2 1017.1 0.0
16/08:00am 17.0 11.6 1.0 34 7.0 NW 19 24 10 13 1017.2 1017.1 0.0
16/07:30am 15.0 10.6 2.9 44 5.4 NW 15 19 8 10 1017.2 1017.1 0.0
16/07:00am 13.3 8.9 2.8 49 4.6 NW 15 19 8 10 1017.2 1017.1 0.0
16/06:30am 12.3 7.9 2.5 51 4.3 NW 15 20 8 11 1017.1 1017.0 0.0

Latest Capital City Observations: Canberra | Sydney | Melbourne | Brisbane | Adelaide | Perth | Hobart | Darwin

Other formats

Comma delimited format used in spreadsheet applications
http://www.bom.gov.au/fwo/IDN60901/IDN60901.94776.axf

JavaScript Object Notation format (JSON) in row-major order
http://www.bom.gov.au/fwo/IDN60901/IDN60901.94776.json

Data quality

Most of these data are generated automatically and are frequently updated. Quality checks on data are not normally performed. It is possible for incorrect values to appear. Refer to information at About Latest Weather Observations and please check the disclaimer before using these data.